Inverway Airport


Codes: YINW/IVW
Name: Inverway Airport
City: Inverway
Country: Australia
Elevation: 0 ft.

Photos at Inverway Airport


   Photos courtesy of SpottingLog. You can add your own sightings and photos by signing up for a free trial today.



No photos found.

Weather at Inverway Airport


Time (UTC)DescriptionTempratureWindCloud coverageVisibilityPressureHumidity
21-Jun-2024 15:00Broken Clouds19°C16 mph, SE76%10000m1020hPa42%
21-Jun-2024 18:00Broken Clouds17°C18 mph, E73%10000m1020hPa44%
21-Jun-2024 21:00Scattered Clouds15°C18 mph, E32%10000m1020hPa47%
22-Jun-2024 00:00Few Clouds17°C22 mph, E20%10000m1022hPa36%
22-Jun-2024 03:00Clear Sky22°C22 mph, E7%10000m1020hPa27%
22-Jun-2024 06:00Clear Sky24°C20 mph, E8%10000m1017hPa24%
22-Jun-2024 09:00Clear Sky21°C13 mph, SE2%10000m1017hPa30%
22-Jun-2024 12:00Clear Sky18°C13 mph, SE2%10000m1019hPa36%
22-Jun-2024 15:00Clear Sky16°C13 mph, SE5%10000m1020hPa38%
22-Jun-2024 18:00Clear Sky14°C13 mph, SE4%10000m1019hPa38%
22-Jun-2024 21:00Clear Sky13°C13 mph, SE0%10000m1020hPa38%
23-Jun-2024 00:00Clear Sky16°C20 mph, SE0%10000m1021hPa32%
23-Jun-2024 03:00Clear Sky22°C18 mph, SE0%10000m1019hPa23%
23-Jun-2024 06:00Clear Sky23°C16 mph, SE0%10000m1016hPa20%
23-Jun-2024 09:00Clear Sky20°C11 mph, SE0%10000m1016hPa24%
23-Jun-2024 12:00Clear Sky16°C11 mph, SE0%10000m1018hPa27%
23-Jun-2024 15:00Clear Sky14°C11 mph, SE0%10000m1017hPa28%
23-Jun-2024 18:00Clear Sky13°C11 mph, SE0%10000m1017hPa30%
23-Jun-2024 21:00Clear Sky12°C11 mph, SE0%10000m1017hPa33%
24-Jun-2024 00:00Clear Sky16°C16 mph, SE0%10000m1018hPa27%
24-Jun-2024 03:00Clear Sky21°C16 mph, SE0%10000m1016hPa18%
24-Jun-2024 06:00Clear Sky23°C13 mph, SE0%10000m1013hPa16%
24-Jun-2024 09:00Clear Sky19°C9 mph, SE0%10000m1014hPa21%
24-Jun-2024 12:00Clear Sky16°C9 mph, SE0%10000m1016hPa25%
24-Jun-2024 15:00Clear Sky14°C9 mph, SE0%10000m1016hPa28%
24-Jun-2024 18:00Clear Sky13°C9 mph, SE0%10000m1015hPa31%
24-Jun-2024 21:00Clear Sky13°C9 mph, SE2%10000m1015hPa33%
25-Jun-2024 00:00Clear Sky17°C13 mph, SE2%10000m1016hPa25%
25-Jun-2024 03:00Clear Sky22°C13 mph, E3%10000m1014hPa17%
25-Jun-2024 06:00Clear Sky23°C9 mph, E4%10000m1012hPa15%
25-Jun-2024 09:00Few Clouds19°C9 mph, E13%10000m1013hPa20%
25-Jun-2024 12:00Clear Sky17°C9 mph, E9%10000m1015hPa23%
25-Jun-2024 15:00Clear Sky15°C11 mph, E0%10000m1015hPa25%
25-Jun-2024 18:00Clear Sky14°C11 mph, E0%10000m1015hPa27%
25-Jun-2024 21:00Clear Sky13°C11 mph, E0%10000m1015hPa32%
26-Jun-2024 00:00Clear Sky17°C16 mph, E0%10000m1016hPa26%
26-Jun-2024 03:00Clear Sky23°C16 mph, E3%10000m1014hPa21%
26-Jun-2024 06:00Clear Sky25°C9 mph, NE4%10000m1012hPa19%
26-Jun-2024 09:00Clear Sky21°C7 mph, E3%10000m1012hPa25%
26-Jun-2024 12:00Clear Sky19°C9 mph, E1%10000m1015hPa30%